메인 페이지
METAR-TAF:

METAR-TAF

공항 :

Piedras Negras, 멕시코

위도: 28-42N, 경도: 100-31W, 고도: 250m

현재 날씨관측

예보는 49분 전, 13:40시(UTC)에 발표되었습니다.
무풍
온도 10°C
습도 57%
기압 1012 hPa
시정: 16.1km
맑음

METAR: MMPG 141340Z 00000KT 10SM SKC 10/02 A2989

시각: 08:29 (14:29 UTC)

예보

예보는 9 시간 4분 전, 05:25시(UTC)에 발표되었습니다.
예보 대상 시간: 14일 06시부터 15일 06시까지 (UTC)
동남동5kt
시정: 10km
고도 20000ft 상공 구름 보통
14일 1800시부터 (UTC)
남서8kt
시정: 10km
고도 22000ft 상공 구름 보통
전환 중
15일 03시부터 15일 05시까지 (UTC)
남남서4kt

TAF: MMPG 140525Z 1406/1506 12005KT P6SM SCT200 FM141800 22008KT P6SM SCT220 BECMG 1503/1505 20004KT

4,000개 이상의 공항 관측 자료 및 예보 (METAR 및 TAF 보고).

지도상에서 검색 가능한 기상관측소가 노란 점과 빨간 점으로 표시되어 있습니다.

기상관측소 명을 보려면 표시 위로 마우스를 이동하세요.

날씨 관측과 예보를 보려면 클릭하세요.

지도 변경 : 확대하려면 엑스 표시가 있는 녹색 버튼, 축소하려면 빼기 표시가 있는 녹색 버튼, 다음 페이지의 지도를 보려면 녹색 화살표를 클릭하세요.


METAR-TAF: